Genesis Eagle — WDG9347 — position and weather

sailwx.info

Track history (hours):
 
Tides and Currents Weather Stations Pressure Air Temp Water Temp Dewpoint Dewpoint Depression Visibility Wind Speed Wind Dir Waves Ship Positions

Genesis Eagle

Owner: Genesis Marine, LLC, Houston, TX. More information available from US FCC via Universal Licensing System and Coast Guard Vessel Documentation Center.

Last reported at 2018-Jun-19 01:10 UTC. Time now 2018-Jun-19 10:53 UTC.
Position N 39°23' W 074°12'.

Length 35 m; draft 6 m.

Type: Tug. MMSI: 338131000.

Date/timePositionNaut miles runAvg speedWind from/ knotsBaromVisibWave heightAir tempDewpointWater temp
2018-Jun-19 01:10N 39°23' W 074°12'1 7.2
2018-Jun-19 00:59N 39°24' W 074°11'3 7.1
2018-Jun-19 00:30N 39°27' W 074°09'5 7.1
2018-Jun-18 23:52N 39°31' W 074°06'4 7.2
2018-Jun-18 23:21N 39°35' W 074°04'3 7.2
2018-Jun-18 23:00N 39°37' W 074°03'4 7.1
2018-Jun-18 22:29N 39°40' W 074°01'4 6.9
2018-Jun-18 21:55N 39°44' W 073°59'3 6.8
2018-Jun-18 21:24N 39°47' W 073°58'7 7.1
2018-Jun-18 20:28N 39°54' W 073°57'3 7.2
2018-Jun-18 20:00N 39°57' W 073°56'114 6.8
2018-Jun-18 03:19N 40°59' W 071°50'2 7.3
2018-Jun-18 03:00N 40°59' W 071°48'92 7.5
2018-Jun-17 14:43N 42°17' W 070°41'2 9.1
2018-Jun-17 14:30N 42°18' W 070°43'5 9.3
2018-Jun-17 14:00N 42°21' W 070°48'4 8.8
2018-Jun-17 13:30N 42°23' W 070°53'5 9.1
2018-Jun-17 13:00N 42°20' W 070°58'4 7.5
2018-Jun-17 12:31N 42°22' W 071°03'1 3.0
2018-Jun-17 12:00N 42°23' W 071°01'0 0.0
2018-Jun-17 11:30N 42°23' W 071°01'0 0.0
2018-Jun-17 11:01N 42°23' W 071°01'0 0.0
2018-Jun-17 10:30N 42°23' W 071°01'0 0.0
2018-Jun-17 10:00N 42°23' W 071°01'0 0.0
2018-Jun-17 09:30N 42°23' W 071°01'0 0.0
2018-Jun-17 09:00N 42°23' W 071°01'0 0.0
2018-Jun-17 08:30N 42°23' W 071°01'0 0.0
2018-Jun-17 08:00N 42°23' W 071°01'0 0.0
2018-Jun-17 07:30N 42°23' W 071°01'0 0.0
2018-Jun-17 07:00N 42°23' W 071°01'0 0.0
2018-Jun-17 06:30N 42°23' W 071°01'0 0.0
2018-Jun-17 06:00N 42°23' W 071°01'0 0.0
2018-Jun-17 05:30N 42°23' W 071°01'0 0.0
2018-Jun-17 05:00N 42°23' W 071°01'0 0.0
2018-Jun-17 04:30N 42°23' W 071°01'0 0.0
2018-Jun-17 04:00N 42°23' W 071°01'0 0.0
2018-Jun-17 03:30N 42°23' W 071°01'0 0.0
2018-Jun-17 03:00N 42°23' W 071°01'0 0.0
2018-Jun-17 02:30N 42°23' W 071°01'0 0.0
2018-Jun-17 02:00N 42°23' W 071°01'0 0.0
2018-Jun-17 01:30N 42°23' W 071°01'0 0.0
2018-Jun-17 01:00N 42°23' W 071°01'0 0.0
2018-Jun-17 00:30N 42°23' W 071°01'0 0.0
2018-Jun-17 00:00N 42°23' W 071°01'0 0.0
2018-Jun-16 23:30N 42°23' W 071°01'0 0.0
2018-Jun-16 23:00N 42°23' W 071°01'0 0.0
2018-Jun-16 22:30N 42°23' W 071°01'0 0.0
2018-Jun-16 22:00N 42°23' W 071°01'0 0.0
2018-Jun-16 21:30N 42°23' W 071°01'0 0.0
2018-Jun-16 21:00N 42°23' W 071°01'0 0.0
2018-Jun-16 20:27N 42°23' W 071°01'0 0.0
2018-Jun-16 20:00N 42°23' W 071°01'0 0.0
2018-Jun-16 19:27N 42°23' W 071°01'0 0.0
2018-Jun-16 19:00N 42°23' W 071°01'0 0.0
2018-Jun-16 18:30N 42°23' W 071°01'0 0.0
2018-Jun-16 18:00N 42°23' W 071°01'0 0.0
2018-Jun-16 17:30N 42°23' W 071°01'0 0.0
2018-Jun-16 17:00N 42°23' W 071°01'0 0.0
2018-Jun-16 16:30N 42°23' W 071°01'0 0.0
2018-Jun-16 16:00N 42°23' W 071°01'0 0.0
2018-Jun-16 15:30N 42°23' W 071°01'0 0.0
2018-Jun-16 15:00N 42°23' W 071°01'0 0.0
2018-Jun-16 14:30N 42°23' W 071°01'0 0.0
2018-Jun-16 14:00N 42°23' W 071°01'0 0.0
2018-Jun-16 13:30N 42°23' W 071°01'0 0.0
2018-Jun-16 13:00N 42°23' W 071°01'0 0.0
2018-Jun-16 12:30N 42°23' W 071°01'0 0.0
2018-Jun-16 12:00N 42°23' W 071°01'0 0.0
2018-Jun-16 11:30N 42°23' W 071°01'0 0.0
2018-Jun-16 11:00N 42°23' W 071°01'1 1.7
2018-Jun-16 10:31N 42°24' W 071°01'1 2.3
2018-Jun-16 10:00N 42°23' W 071°02'1 2.6
2018-Jun-16 09:30N 42°22' W 071°03'1 1.9
2018-Jun-16 09:00N 42°21' W 071°02'0 0.0
2018-Jun-16 08:30N 42°21' W 071°02'0 0.0
2018-Jun-16 08:00N 42°21' W 071°02'0 0.0
2018-Jun-16 07:30N 42°21' W 071°02'0 0.0
2018-Jun-16 07:00N 42°21' W 071°02'0 0.0
2018-Jun-16 06:30N 42°21' W 071°02'0 0.0
2018-Jun-16 06:00N 42°21' W 071°02'0 0.2
2018-Jun-16 05:30N 42°21' W 071°02'0 0.1
2018-Jun-16 05:00N 42°21' W 071°02'0 0.1
2018-Jun-16 04:30N 42°21' W 071°02'0 0.1
2018-Jun-16 04:00N 42°21' W 071°02'0 0.0
2018-Jun-16 03:30N 42°21' W 071°02'0 0.1
2018-Jun-16 03:00N 42°21' W 071°02'0 0.0
2018-Jun-16 02:30N 42°21' W 071°02'0 0.1
2018-Jun-16 02:00N 42°21' W 071°02'0 0.0
2018-Jun-16 01:30N 42°21' W 071°02'0 0.0
2018-Jun-16 01:00N 42°21' W 071°02'0 0.0
2018-Jun-16 00:30N 42°21' W 071°02'0 0.1
2018-Jun-16 00:00N 42°21' W 071°02'0 0.2
2018-Jun-15 23:30N 42°21' W 071°02'0 0.1
2018-Jun-15 23:00N 42°21' W 071°02'0 0.1
2018-Jun-15 22:30N 42°21' W 071°02'0 0.0
2018-Jun-15 22:00N 42°21' W 071°02'0 0.0
2018-Jun-15 21:30N 42°21' W 071°02'0 0.0
2018-Jun-15 21:00N 42°21' W 071°02'0 0.0
2018-Jun-15 20:30N 42°21' W 071°02'0 0.0
2018-Jun-15 20:00N 42°21' W 071°02'0 0.0
2018-Jun-15 19:30N 42°21' W 071°02'0 0.1
2018-Jun-15 19:00N 42°21' W 071°02'0 0.1
2018-Jun-15 18:30N 42°21' W 071°02'0 0.1
2018-Jun-15 18:00N 42°21' W 071°02'0 0.1
2018-Jun-15 17:30N 42°21' W 071°02'0 0.0
2018-Jun-15 17:00N 42°21' W 071°02'0 0.0
2018-Jun-15 16:30N 42°21' W 071°02'0 0.1
2018-Jun-15 16:00N 42°21' W 071°02'0 0.0
2018-Jun-15 15:30N 42°21' W 071°02'0 0.0
2018-Jun-15 15:00N 42°21' W 071°02'0 0.0
2018-Jun-15 14:30N 42°21' W 071°02'0 0.0
2018-Jun-15 14:00N 42°21' W 071°02'0 0.0
2018-Jun-15 13:30N 42°21' W 071°02'0 0.0
2018-Jun-15 13:00N 42°21' W 071°02'0 0.1
2018-Jun-15 12:30N 42°21' W 071°02'0 0.1
2018-Jun-15 12:00N 42°21' W 071°02'0 0.1
2018-Jun-15 11:30N 42°21' W 071°02'0 0.0
2018-Jun-15 11:00N 42°21' W 071°02'0 0.0
2018-Jun-15 10:30N 42°21' W 071°02'0 0.0
2018-Jun-15 10:00N 42°21' W 071°02'0 0.1
2018-Jun-15 09:30N 42°21' W 071°02'0 0.0
2018-Jun-15 09:00N 42°21' W 071°02'0 0.0
2018-Jun-15 08:29N 42°21' W 071°02'0 0.0
2018-Jun-15 08:00N 42°21' W 071°02'0 0.0
2018-Jun-15 07:30N 42°21' W 071°02'0 0.0
2018-Jun-15 07:00N 42°21' W 071°02'0 0.0
2018-Jun-15 06:24N 42°21' W 071°02'0 0.0
2018-Jun-15 06:00N 42°21' W 071°02'0 0.0
2018-Jun-15 05:30N 42°21' W 071°02'0 0.0
2018-Jun-15 05:00N 42°21' W 071°02'0 0.0
2018-Jun-15 04:30N 42°21' W 071°02'0 0.1
2018-Jun-15 03:59N 42°21' W 071°02'0 0.0
2018-Jun-15 03:30N 42°21' W 071°02'0 0.0
2018-Jun-15 02:59N 42°21' W 071°02'0 0.0
2018-Jun-15 02:30N 42°21' W 071°02'0 0.0
2018-Jun-15 02:00N 42°21' W 071°02'0 0.1
2018-Jun-15 01:30N 42°21' W 071°02'0 0.0
2018-Jun-15 01:00N 42°21' W 071°02'0 0.0
2018-Jun-15 00:30N 42°21' W 071°02'0 0.0
2018-Jun-15 00:00N 42°21' W 071°02'0 0.0
2018-Jun-14 23:30N 42°21' W 071°02'0 0.1
2018-Jun-14 23:00N 42°21' W 071°02'0 0.0
2018-Jun-14 22:29N 42°21' W 071°02'0 0.0
2018-Jun-14 21:59N 42°21' W 071°02'0 0.0
2018-Jun-14 21:30N 42°21' W 071°02'0 0.0
2018-Jun-14 20:59N 42°21' W 071°02'0 0.0
2018-Jun-14 20:30N 42°21' W 071°02'0 0.0
2018-Jun-14 20:00N 42°21' W 071°02'0 0.0
2018-Jun-14 19:29N 42°21' W 071°02'0 0.0
2018-Jun-14 19:00N 42°21' W 071°02'0 0.0
2018-Jun-14 18:30N 42°21' W 071°02'0 0.0
2018-Jun-14 18:00N 42°21' W 071°02'0 0.0
2018-Jun-14 17:30N 42°21' W 071°02'0 0.0
2018-Jun-14 17:00N 42°21' W 071°02'0 0.1
2018-Jun-14 16:30N 42°21' W 071°02'0 0.0
2018-Jun-14 16:00N 42°21' W 071°02'0 0.0
2018-Jun-14 15:30N 42°21' W 071°02'0 0.0
2018-Jun-14 15:00N 42°21' W 071°02'0 0.1
2018-Jun-14 14:30N 42°21' W 071°02'0 0.1
2018-Jun-14 14:00N 42°21' W 071°02'0 0.1
2018-Jun-14 13:30N 42°21' W 071°02'0 0.1
2018-Jun-14 13:00N 42°21' W 071°02'0 0.0
2018-Jun-14 12:30N 42°21' W 071°02'0 0.1
2018-Jun-14 12:00N 42°21' W 071°02'0 0.0
2018-Jun-14 11:30N 42°21' W 071°02'0 0.1
2018-Jun-14 11:00N 42°21' W 071°02'0 0.0
2018-Jun-14 10:30N 42°21' W 071°02'0 0.0
2018-Jun-14 10:00N 42°21' W 071°02'0 0.0
2018-Jun-14 09:30N 42°21' W 071°02'0 0.0
2018-Jun-14 08:59N 42°21' W 071°02'0 0.0
2018-Jun-14 08:30N 42°21' W 071°02'0 0.0
2018-Jun-14 08:00N 42°21' W 071°02'0 0.0
2018-Jun-14 07:30N 42°21' W 071°02'0 0.0
2018-Jun-14 06:59N 42°21' W 071°02'0 0.0
2018-Jun-14 06:30N 42°21' W 071°02'0 0.0
2018-Jun-14 05:59N 42°21' W 071°02'0 0.0
2018-Jun-14 05:30N 42°21' W 071°02'0 0.0
2018-Jun-14 04:59N 42°21' W 071°02'0 0.0
2018-Jun-14 04:30N 42°21' W 071°02'0 0.1
2018-Jun-14 04:00N 42°21' W 071°02'0 0.0
2018-Jun-14 03:27N 42°21' W 071°02'0 0.1
2018-Jun-14 03:00N 42°21' W 071°02'0 0.1
2018-Jun-14 02:29N 42°21' W 071°02'0 0.1
2018-Jun-14 02:00N 42°21' W 071°02'0 0.0
2018-Jun-14 01:29N 42°21' W 071°02'0 0.1
2018-Jun-14 01:00N 42°21' W 071°02'0 0.1
2018-Jun-14 00:29N 42°21' W 071°02'0 0.1
2018-Jun-13 23:59N 42°21' W 071°02'0 0.0
2018-Jun-13 23:29N 42°21' W 071°02'0 0.0
2018-Jun-13 22:59N 42°21' W 071°02'0 0.0
2018-Jun-13 22:30N 42°21' W 071°02'0 0.1
2018-Jun-13 21:59N 42°21' W 071°02'0 0.2
2018-Jun-13 21:30N 42°21' W 071°02'0 0.1
2018-Jun-13 20:59N 42°21' W 071°02'0 0.0
2018-Jun-13 20:29N 42°21' W 071°02'0 0.0
2018-Jun-13 19:59N 42°21' W 071°02'0 0.0
2018-Jun-13 19:29N 42°21' W 071°02'0 0.0
2018-Jun-13 18:59N 42°21' W 071°02'0 0.0
2018-Jun-13 18:29N 42°21' W 071°02'0 0.0
2018-Jun-13 17:57N 42°21' W 071°02'0 0.0
2018-Jun-13 17:29N 42°21' W 071°02'0 0.1
2018-Jun-13 17:00N 42°21' W 071°02'0 0.0
2018-Jun-13 16:29N 42°21' W 071°02'0 0.0
2018-Jun-13 15:59N 42°21' W 071°02'0 0.1
2018-Jun-13 15:30N 42°21' W 071°02'0 0.0
2018-Jun-13 14:59N 42°21' W 071°02'0 0.0
2018-Jun-13 14:29N 42°21' W 071°02'0 0.0
2018-Jun-13 13:59N 42°21' W 071°02'0 0.0
2018-Jun-13 13:29N 42°21' W 071°02'0 0.0
2018-Jun-13 12:56N 42°21' W 071°02'0 0.0
2018-Jun-13 12:29N 42°21' W 071°02'0 0.0
2018-Jun-13 11:59N 42°21' W 071°02'0 0.0
2018-Jun-13 11:29N 42°21' W 071°02'0 0.1
2018-Jun-13 10:59N 42°21' W 071°02'0 0.1
2018-Jun-13 10:29N 42°21' W 071°02'0 0.0
2018-Jun-13 09:59N 42°21' W 071°02'0 0.1
2018-Jun-13 09:29N 42°21' W 071°02'0 0.1
2018-Jun-13 09:00N 42°21' W 071°02'0 0.0
2018-Jun-13 08:30N 42°21' W 071°02'0 0.1
2018-Jun-13 08:00N 42°21' W 071°02'0 0.0
2018-Jun-13 07:29N 42°21' W 071°02'0 0.0
2018-Jun-13 06:59N 42°21' W 071°02'0 0.0
2018-Jun-13 06:29N 42°21' W 071°02'0 0.0
2018-Jun-13 05:59N 42°21' W 071°02'0 0.0
2018-Jun-13 05:29N 42°21' W 071°02'0 0.0
2018-Jun-13 05:00N 42°21' W 071°02'0 0.0
2018-Jun-13 04:30N 42°21' W 071°02'0 0.0
2018-Jun-13 04:00N 42°21' W 071°02'0 0.1
2018-Jun-13 03:30N 42°21' W 071°02'0 0.0
2018-Jun-13 03:00N 42°21' W 071°02'0 0.1
2018-Jun-13 02:30N 42°21' W 071°02'0 0.0
2018-Jun-13 02:00N 42°21' W 071°02'0 0.0
2018-Jun-13 01:30N 42°21' W 071°02'0 0.0
2018-Jun-13 01:00N 42°21' W 071°02'0 0.0
2018-Jun-13 00:30N 42°21' W 071°02'0 0.1
2018-Jun-13 00:00N 42°21' W 071°02'0 0.0
2018-Jun-12 23:30N 42°21' W 071°02'0 0.0
2018-Jun-12 23:00N 42°21' W 071°02'0 0.0
2018-Jun-12 22:31N 42°21' W 071°02'0 0.0
2018-Jun-12 22:00N 42°21' W 071°02'0 0.1
2018-Jun-12 21:30N 42°21' W 071°02'0 0.0
2018-Jun-12 21:00N 42°21' W 071°02'0 0.0
2018-Jun-12 20:30N 42°21' W 071°02'0 0.1
2018-Jun-12 20:00N 42°21' W 071°02'0 0.0
2018-Jun-12 19:30N 42°21' W 071°02'0 0.0
2018-Jun-12 19:00N 42°21' W 071°02'0 0.0
2018-Jun-12 18:30N 42°21' W 071°02'0 0.2
2018-Jun-12 18:00N 42°21' W 071°02'2 4.6
2018-Jun-12 17:30N 42°20' W 070°59'3 7.0
2018-Jun-12 17:00N 42°22' W 070°55'4 8.0
2018-Jun-12 16:30N 42°23' W 070°50'4 8.5
2018-Jun-12 16:00N 42°23' W 070°44'4 8.9
2018-Jun-12 15:30N 42°22' W 070°38'5 9.0
2018-Jun-12 15:00N 42°22' W 070°32'5 9.1
2018-Jun-12 14:30N 42°21' W 070°26'4 8.9
2018-Jun-12 14:00N 42°21' W 070°20'5 8.9
2018-Jun-12 13:30N 42°20' W 070°14'5 9.0
2018-Jun-12 12:59N 42°20' W 070°08'4 9.0
2018-Jun-12 12:30N 42°19' W 070°02'28 8.4
2018-Jun-12 09:10N 41°55' W 069°44'3 8.5
2018-Jun-12 08:52N 41°53' W 069°42'3 8.5
2018-Jun-12 08:30N 41°50' W 069°40'4 8.4
2018-Jun-12 07:59N 41°46' W 069°37'5 8.2
2018-Jun-12 07:20N 41°41' W 069°34'4 8.5
2018-Jun-12 06:55N 41°38' W 069°32'3 8.3
2018-Jun-12 06:30N 41°35' W 069°30'4 8.0
2018-Jun-12 06:00N 41°31' W 069°28'4 7.5
2018-Jun-12 05:29N 41°28' W 069°25'4 7.1
2018-Jun-12 04:58N 41°25' W 069°23'301 7.0
2018-Jun-10 09:42N 39°09' W 075°15'2 8.2
2018-Jun-10 09:29N 39°11' W 075°16'4 7.9
2018-Jun-10 09:00N 39°14' W 075°18'4 7.2
2018-Jun-10 08:30N 39°17' W 075°21'2 4.0
2018-Jun-10 07:59N 39°18' W 075°23'4 9.4
2018-Jun-10 07:30N 39°22' W 075°27'611.0
2018-Jun-10 06:58N 39°26' W 075°32'1 3.0
2018-Jun-10 06:30N 39°27' W 075°33'510.6
2018-Jun-10 06:00N 39°32' W 075°33'510.4
2018-Jun-10 05:29N 39°37' W 075°35'610.6
2018-Jun-10 04:58N 39°42' W 075°31'1014.7
2018-Jun-10 04:18N 39°50' W 075°23'3 8.8
2018-Jun-10 03:56N 39°51' W 075°19'2 4.9
2018-Jun-10 03:29N 39°51' W 075°16'0 0.0
2018-Jun-10 03:00N 39°51' W 075°16'0 0.0
2018-Jun-10 02:30N 39°51' W 075°16'0 0.1
2018-Jun-10 01:53N 39°51' W 075°16'1 2.9
2018-Jun-10 01:28N 39°51' W 075°14'3 6.4
2018-Jun-10 00:58N 39°53' W 075°11'0 0.0
2018-Jun-10 00:30N 39°53' W 075°11'0 0.0
2018-Jun-10 00:00N 39°53' W 075°11'0 0.0
2018-Jun-09 23:28N 39°53' W 075°11'0 0.0
2018-Jun-09 22:58N 39°53' W 075°11'0 0.0
2018-Jun-09 22:26N 39°53' W 075°11'0 0.0
2018-Jun-09 22:00N 39°53' W 075°11'0 0.0
2018-Jun-09 21:25N 39°53' W 075°11'0 0.0
2018-Jun-09 21:00N 39°53' W 075°11'0 0.0
2018-Jun-09 20:30N 39°53' W 075°11'0 0.0
2018-Jun-09 19:58N 39°53' W 075°11'0 0.0
2018-Jun-09 19:27N 39°53' W 075°11'0 0.0
2018-Jun-09 19:00N 39°53' W 075°11'0 0.0
2018-Jun-09 18:30N 39°53' W 075°11'0 0.0
2018-Jun-09 17:58N 39°53' W 075°11'0 0.0
2018-Jun-09 17:26N 39°53' W 075°11'0 0.0
2018-Jun-09 17:00N 39°53' W 075°11'0 0.0
2018-Jun-09 16:29N 39°53' W 075°11'0 0.0
2018-Jun-09 16:01N 39°53' W 075°11'0 0.0
2018-Jun-09 15:00N 39°53' W 075°11'0 0.0
2018-Jun-09 14:28N 39°53' W 075°11'0 0.0
2018-Jun-09 13:58N 39°53' W 075°11'0 0.0
2018-Jun-09 13:30N 39°53' W 075°11'0 0.0
2018-Jun-09 13:00N 39°53' W 075°11'0 0.0
2018-Jun-09 12:30N 39°53' W 075°11'0 0.0
2018-Jun-09 11:59N 39°53' W 075°11'0 0.0
2018-Jun-09 11:29N 39°53' W 075°11'0 0.0
2018-Jun-09 11:00N 39°53' W 075°11'0 0.0
2018-Jun-09 10:29N 39°53' W 075°11'0 0.0
2018-Jun-09 10:00N 39°53' W 075°11'0 0.0
2018-Jun-09 09:27N 39°53' W 075°11'0 0.0
2018-Jun-09 08:59N 39°53' W 075°11'0 0.0
2018-Jun-09 08:30N 39°53' W 075°11'0 0.0
2018-Jun-09 07:59N 39°53' W 075°11'0 0.0
2018-Jun-09 07:29N 39°53' W 075°11'0 0.0
2018-Jun-09 07:00N 39°53' W 075°11'0 0.0
2018-Jun-09 06:30N 39°53' W 075°11'0 0.0
2018-Jun-09 06:00N 39°53' W 075°11'0 0.0
2018-Jun-09 05:30N 39°53' W 075°11'0 0.0
2018-Jun-09 05:00N 39°53' W 075°11'0 0.0
2018-Jun-09 04:30N 39°53' W 075°11'0 0.0
2018-Jun-09 04:00N 39°53' W 075°11'0 0.0
2018-Jun-09 03:30N 39°53' W 075°11'0 0.0
2018-Jun-09 03:00N 39°53' W 075°11'0 0.0
2018-Jun-09 02:30N 39°53' W 075°11'0 0.0
2018-Jun-09 02:00N 39°53' W 075°11'0 0.0
2018-Jun-09 01:30N 39°53' W 075°11'  
Track history (hours):
 
Tides and Currents Weather Stations Pressure Air Temp Water Temp Dewpoint Dewpoint Depression Visibility Wind Speed Wind Dir Waves Ship Positions

Genesis Eagle

Owner: Genesis Marine, LLC, Houston, TX. More information available from US FCC via Universal Licensing System and Coast Guard Vessel Documentation Center.

Last reported at 2018-Jun-19 01:10 UTC. Time now 2018-Jun-19 10:53 UTC.
Position N 39°23' W 074°12'.

Length 35 m; draft 6 m.

Type: Tug. MMSI: 338131000.

Date/timePositionNaut miles runAvg speedWind from/ knotsBaromVisibWave heightAir tempDewpointWater temp
2018-Jun-19 01:10N 39°23' W 074°12'1 7.2
2018-Jun-19 00:59N 39°24' W 074°11'3 7.1
2018-Jun-19 00:30N 39°27' W 074°09'5 7.1
2018-Jun-18 23:52N 39°31' W 074°06'4 7.2
2018-Jun-18 23:21N 39°35' W 074°04'3 7.2
2018-Jun-18 23:00N 39°37' W 074°03'4 7.1
2018-Jun-18 22:29N 39°40' W 074°01'4 6.9
2018-Jun-18 21:55N 39°44' W 073°59'3 6.8
2018-Jun-18 21:24N 39°47' W 073°58'7 7.1
2018-Jun-18 20:28N 39°54' W 073°57'3 7.2
2018-Jun-18 20:00N 39°57' W 073°56'114 6.8
2018-Jun-18 03:19N 40°59' W 071°50'2 7.3
2018-Jun-18 03:00N 40°59' W 071°48'92 7.5
2018-Jun-17 14:43N 42°17' W 070°41'2 9.1
2018-Jun-17 14:30N 42°18' W 070°43'5 9.3
2018-Jun-17 14:00N 42°21' W 070°48'4 8.8
2018-Jun-17 13:30N 42°23' W 070°53'5 9.1
2018-Jun-17 13:00N 42°20' W 070°58'4 7.5
2018-Jun-17 12:31N 42°22' W 071°03'1 3.0
2018-Jun-17 12:00N 42°23' W 071°01'0 0.0
2018-Jun-17 11:30N 42°23' W 071°01'0 0.0
2018-Jun-17 11:01N 42°23' W 071°01'0 0.0
2018-Jun-17 10:30N 42°23' W 071°01'0 0.0
2018-Jun-17 10:00N 42°23' W 071°01'0 0.0
2018-Jun-17 09:30N 42°23' W 071°01'0 0.0
2018-Jun-17 09:00N 42°23' W 071°01'0 0.0
2018-Jun-17 08:30N 42°23' W 071°01'0 0.0
2018-Jun-17 08:00N 42°23' W 071°01'0 0.0
2018-Jun-17 07:30N 42°23' W 071°01'0 0.0
2018-Jun-17 07:00N 42°23' W 071°01'0 0.0
2018-Jun-17 06:30N 42°23' W 071°01'0 0.0
2018-Jun-17 06:00N 42°23' W 071°01'0 0.0
2018-Jun-17 05:30N 42°23' W 071°01'0 0.0
2018-Jun-17 05:00N 42°23' W 071°01'0 0.0
2018-Jun-17 04:30N 42°23' W 071°01'0 0.0
2018-Jun-17 04:00N 42°23' W 071°01'0 0.0
2018-Jun-17 03:30N 42°23' W 071°01'0 0.0
2018-Jun-17 03:00N 42°23' W 071°01'0 0.0
2018-Jun-17 02:30N 42°23' W 071°01'0 0.0
2018-Jun-17 02:00N 42°23' W 071°01'0 0.0
2018-Jun-17 01:30N 42°23' W 071°01'0 0.0
2018-Jun-17 01:00N 42°23' W 071°01'0 0.0
2018-Jun-17 00:30N 42°23' W 071°01'0 0.0
2018-Jun-17 00:00N 42°23' W 071°01'0 0.0
2018-Jun-16 23:30N 42°23' W 071°01'0 0.0
2018-Jun-16 23:00N 42°23' W 071°01'0 0.0
2018-Jun-16 22:30N 42°23' W 071°01'0 0.0
2018-Jun-16 22:00N 42°23' W 071°01'0 0.0
2018-Jun-16 21:30N 42°23' W 071°01'0 0.0
2018-Jun-16 21:00N 42°23' W 071°01'0 0.0
2018-Jun-16 20:27N 42°23' W 071°01'0 0.0
2018-Jun-16 20:00N 42°23' W 071°01'0 0.0
2018-Jun-16 19:27N 42°23' W 071°01'0 0.0
2018-Jun-16 19:00N 42°23' W 071°01'0 0.0
2018-Jun-16 18:30N 42°23' W 071°01'0 0.0
2018-Jun-16 18:00N 42°23' W 071°01'0 0.0
2018-Jun-16 17:30N 42°23' W 071°01'0 0.0
2018-Jun-16 17:00N 42°23' W 071°01'0 0.0
2018-Jun-16 16:30N 42°23' W 071°01'0 0.0
2018-Jun-16 16:00N 42°23' W 071°01'0 0.0
2018-Jun-16 15:30N 42°23' W 071°01'0 0.0
2018-Jun-16 15:00N 42°23' W 071°01'0 0.0
2018-Jun-16 14:30N 42°23' W 071°01'0 0.0
2018-Jun-16 14:00N 42°23' W 071°01'0 0.0
2018-Jun-16 13:30N 42°23' W 071°01'0 0.0
2018-Jun-16 13:00N 42°23' W 071°01'0 0.0
2018-Jun-16 12:30N 42°23' W 071°01'0 0.0
2018-Jun-16 12:00N 42°23' W 071°01'0 0.0
2018-Jun-16 11:30N 42°23' W 071°01'0 0.0
2018-Jun-16 11:00N 42°23' W 071°01'1 1.7
2018-Jun-16 10:31N 42°24' W 071°01'1 2.3
2018-Jun-16 10:00N 42°23' W 071°02'1 2.6
2018-Jun-16 09:30N 42°22' W 071°03'1 1.9
2018-Jun-16 09:00N 42°21' W 071°02'0 0.0
2018-Jun-16 08:30N 42°21' W 071°02'0 0.0
2018-Jun-16 08:00N 42°21' W 071°02'0 0.0
2018-Jun-16 07:30N 42°21' W 071°02'0 0.0
2018-Jun-16 07:00N 42°21' W 071°02'0 0.0
2018-Jun-16 06:30N 42°21' W 071°02'0 0.0
2018-Jun-16 06:00N 42°21' W 071°02'0 0.2
2018-Jun-16 05:30N 42°21' W 071°02'0 0.1
2018-Jun-16 05:00N 42°21' W 071°02'0 0.1
2018-Jun-16 04:30N 42°21' W 071°02'0 0.1
2018-Jun-16 04:00N 42°21' W 071°02'0 0.0
2018-Jun-16 03:30N 42°21' W 071°02'0 0.1
2018-Jun-16 03:00N 42°21' W 071°02'0 0.0
2018-Jun-16 02:30N 42°21' W 071°02'0 0.1
2018-Jun-16 02:00N 42°21' W 071°02'0 0.0
2018-Jun-16 01:30N 42°21' W 071°02'0 0.0
2018-Jun-16 01:00N 42°21' W 071°02'0 0.0
2018-Jun-16 00:30N 42°21' W 071°02'0 0.1
2018-Jun-16 00:00N 42°21' W 071°02'0 0.2
2018-Jun-15 23:30N 42°21' W 071°02'0 0.1
2018-Jun-15 23:00N 42°21' W 071°02'0 0.1
2018-Jun-15 22:30N 42°21' W 071°02'0 0.0
2018-Jun-15 22:00N 42°21' W 071°02'0 0.0
2018-Jun-15 21:30N 42°21' W 071°02'0 0.0
2018-Jun-15 21:00N 42°21' W 071°02'0 0.0
2018-Jun-15 20:30N 42°21' W 071°02'0 0.0
2018-Jun-15 20:00N 42°21' W 071°02'0 0.0
2018-Jun-15 19:30N 42°21' W 071°02'0 0.1
2018-Jun-15 19:00N 42°21' W 071°02'0 0.1
2018-Jun-15 18:30N 42°21' W 071°02'0 0.1
2018-Jun-15 18:00N 42°21' W 071°02'0 0.1
2018-Jun-15 17:30N 42°21' W 071°02'0 0.0
2018-Jun-15 17:00N 42°21' W 071°02'0 0.0
2018-Jun-15 16:30N 42°21' W 071°02'0 0.1
2018-Jun-15 16:00N 42°21' W 071°02'0 0.0
2018-Jun-15 15:30N 42°21' W 071°02'0 0.0
2018-Jun-15 15:00N 42°21' W 071°02'0 0.0
2018-Jun-15 14:30N 42°21' W 071°02'0 0.0
2018-Jun-15 14:00N 42°21' W 071°02'0 0.0
2018-Jun-15 13:30N 42°21' W 071°02'0 0.0
2018-Jun-15 13:00N 42°21' W 071°02'0 0.1
2018-Jun-15 12:30N 42°21' W 071°02'0 0.1
2018-Jun-15 12:00N 42°21' W 071°02'0 0.1
2018-Jun-15 11:30N 42°21' W 071°02'0 0.0
2018-Jun-15 11:00N 42°21' W 071°02'0 0.0
2018-Jun-15 10:30N 42°21' W 071°02'0 0.0
2018-Jun-15 10:00N 42°21' W 071°02'0 0.1
2018-Jun-15 09:30N 42°21' W 071°02'0 0.0
2018-Jun-15 09:00N 42°21' W 071°02'0 0.0
2018-Jun-15 08:29N 42°21' W 071°02'0 0.0
2018-Jun-15 08:00N 42°21' W 071°02'0 0.0
2018-Jun-15 07:30N 42°21' W 071°02'0 0.0
2018-Jun-15 07:00N 42°21' W 071°02'0 0.0
2018-Jun-15 06:24N 42°21' W 071°02'0 0.0
2018-Jun-15 06:00N 42°21' W 071°02'0 0.0
2018-Jun-15 05:30N 42°21' W 071°02'0 0.0
2018-Jun-15 05:00N 42°21' W 071°02'0 0.0
2018-Jun-15 04:30N 42°21' W 071°02'0 0.1
2018-Jun-15 03:59N 42°21' W 071°02'0 0.0
2018-Jun-15 03:30N 42°21' W 071°02'0 0.0
2018-Jun-15 02:59N 42°21' W 071°02'0 0.0
2018-Jun-15 02:30N 42°21' W 071°02'0 0.0
2018-Jun-15 02:00N 42°21' W 071°02'0 0.1
2018-Jun-15 01:30N 42°21' W 071°02'0 0.0
2018-Jun-15 01:00N 42°21' W 071°02'0 0.0
2018-Jun-15 00:30N 42°21' W 071°02'0 0.0
2018-Jun-15 00:00N 42°21' W 071°02'0 0.0
2018-Jun-14 23:30N 42°21' W 071°02'0 0.1
2018-Jun-14 23:00N 42°21' W 071°02'0 0.0
2018-Jun-14 22:29N 42°21' W 071°02'0 0.0
2018-Jun-14 21:59N 42°21' W 071°02'0 0.0
2018-Jun-14 21:30N 42°21' W 071°02'0 0.0
2018-Jun-14 20:59N 42°21' W 071°02'0 0.0
2018-Jun-14 20:30N 42°21' W 071°02'0 0.0
2018-Jun-14 20:00N 42°21' W 071°02'0 0.0
2018-Jun-14 19:29N 42°21' W 071°02'0 0.0
2018-Jun-14 19:00N 42°21' W 071°02'0 0.0
2018-Jun-14 18:30N 42°21' W 071°02'0 0.0
2018-Jun-14 18:00N 42°21' W 071°02'0 0.0
2018-Jun-14 17:30N 42°21' W 071°02'0 0.0
2018-Jun-14 17:00N 42°21' W 071°02'0 0.1
2018-Jun-14 16:30N 42°21' W 071°02'0 0.0
2018-Jun-14 16:00N 42°21' W 071°02'0 0.0
2018-Jun-14 15:30N 42°21' W 071°02'0 0.0
2018-Jun-14 15:00N 42°21' W 071°02'0 0.1
2018-Jun-14 14:30N 42°21' W 071°02'0 0.1
2018-Jun-14 14:00N 42°21' W 071°02'0 0.1
2018-Jun-14 13:30N 42°21' W 071°02'0 0.1
2018-Jun-14 13:00N 42°21' W 071°02'0 0.0
2018-Jun-14 12:30N 42°21' W 071°02'0 0.1
2018-Jun-14 12:00N 42°21' W 071°02'0 0.0
2018-Jun-14 11:30N 42°21' W 071°02'0 0.1
2018-Jun-14 11:00N 42°21' W 071°02'0 0.0
2018-Jun-14 10:30N 42°21' W 071°02'0 0.0
2018-Jun-14 10:00N 42°21' W 071°02'0 0.0
2018-Jun-14 09:30N 42°21' W 071°02'0 0.0
2018-Jun-14 08:59N 42°21' W 071°02'0 0.0
2018-Jun-14 08:30N 42°21' W 071°02'0 0.0
2018-Jun-14 08:00N 42°21' W 071°02'0 0.0
2018-Jun-14 07:30N 42°21' W 071°02'0 0.0
2018-Jun-14 06:59N 42°21' W 071°02'0 0.0
2018-Jun-14 06:30N 42°21' W 071°02'0 0.0
2018-Jun-14 05:59N 42°21' W 071°02'0 0.0
2018-Jun-14 05:30N 42°21' W 071°02'0 0.0
2018-Jun-14 04:59N 42°21' W 071°02'0 0.0
2018-Jun-14 04:30N 42°21' W 071°02'0 0.1
2018-Jun-14 04:00N 42°21' W 071°02'0 0.0
2018-Jun-14 03:27N 42°21' W 071°02'0 0.1
2018-Jun-14 03:00N 42°21' W 071°02'0 0.1
2018-Jun-14 02:29N 42°21' W 071°02'0 0.1
2018-Jun-14 02:00N 42°21' W 071°02'0 0.0
2018-Jun-14 01:29N 42°21' W 071°02'0 0.1
2018-Jun-14 01:00N 42°21' W 071°02'0 0.1
2018-Jun-14 00:29N 42°21' W 071°02'0 0.1
2018-Jun-13 23:59N 42°21' W 071°02'0 0.0
2018-Jun-13 23:29N 42°21' W 071°02'0 0.0
2018-Jun-13 22:59N 42°21' W 071°02'0 0.0
2018-Jun-13 22:30N 42°21' W 071°02'0 0.1
2018-Jun-13 21:59N 42°21' W 071°02'0 0.2
2018-Jun-13 21:30N 42°21' W 071°02'0 0.1
2018-Jun-13 20:59N 42°21' W 071°02'0 0.0
2018-Jun-13 20:29N 42°21' W 071°02'0 0.0
2018-Jun-13 19:59N 42°21' W 071°02'0 0.0
2018-Jun-13 19:29N 42°21' W 071°02'0 0.0
2018-Jun-13 18:59N 42°21' W 071°02'0 0.0
2018-Jun-13 18:29N 42°21' W 071°02'0 0.0
2018-Jun-13 17:57N 42°21' W 071°02'0 0.0
2018-Jun-13 17:29N 42°21' W 071°02'0 0.1
2018-Jun-13 17:00N 42°21' W 071°02'0 0.0
2018-Jun-13 16:29N 42°21' W 071°02'0 0.0
2018-Jun-13 15:59N 42°21' W 071°02'0 0.1
2018-Jun-13 15:30N 42°21' W 071°02'0 0.0
2018-Jun-13 14:59N 42°21' W 071°02'0 0.0
2018-Jun-13 14:29N 42°21' W 071°02'0 0.0
2018-Jun-13 13:59N 42°21' W 071°02'0 0.0
2018-Jun-13 13:29N 42°21' W 071°02'0 0.0
2018-Jun-13 12:56N 42°21' W 071°02'0 0.0
2018-Jun-13 12:29N 42°21' W 071°02'0 0.0
2018-Jun-13 11:59N 42°21' W 071°02'0 0.0
2018-Jun-13 11:29N 42°21' W 071°02'0 0.1
2018-Jun-13 10:59N 42°21' W 071°02'0 0.1
2018-Jun-13 10:29N 42°21' W 071°02'0 0.0
2018-Jun-13 09:59N 42°21' W 071°02'0 0.1
2018-Jun-13 09:29N 42°21' W 071°02'0 0.1
2018-Jun-13 09:00N 42°21' W 071°02'0 0.0
2018-Jun-13 08:30N 42°21' W 071°02'0 0.1
2018-Jun-13 08:00N 42°21' W 071°02'0 0.0
2018-Jun-13 07:29N 42°21' W 071°02'0 0.0
2018-Jun-13 06:59N 42°21' W 071°02'0 0.0
2018-Jun-13 06:29N 42°21' W 071°02'0 0.0
2018-Jun-13 05:59N 42°21' W 071°02'0 0.0
2018-Jun-13 05:29N 42°21' W 071°02'0 0.0
2018-Jun-13 05:00N 42°21' W 071°02'0 0.0
2018-Jun-13 04:30N 42°21' W 071°02'0 0.0
2018-Jun-13 04:00N 42°21' W 071°02'0 0.1
2018-Jun-13 03:30N 42°21' W 071°02'0 0.0
2018-Jun-13 03:00N 42°21' W 071°02'0 0.1
2018-Jun-13 02:30N 42°21' W 071°02'0 0.0
2018-Jun-13 02:00N 42°21' W 071°02'0 0.0
2018-Jun-13 01:30N 42°21' W 071°02'0 0.0
2018-Jun-13 01:00N 42°21' W 071°02'0 0.0
2018-Jun-13 00:30N 42°21' W 071°02'0 0.1
2018-Jun-13 00:00N 42°21' W 071°02'0 0.0
2018-Jun-12 23:30N 42°21' W 071°02'0 0.0
2018-Jun-12 23:00N 42°21' W 071°02'0 0.0
2018-Jun-12 22:31N 42°21' W 071°02'0 0.0
2018-Jun-12 22:00N 42°21' W 071°02'0 0.1
2018-Jun-12 21:30N 42°21' W 071°02'0 0.0
2018-Jun-12 21:00N 42°21' W 071°02'0 0.0
2018-Jun-12 20:30N 42°21' W 071°02'0 0.1
2018-Jun-12 20:00N 42°21' W 071°02'0 0.0
2018-Jun-12 19:30N 42°21' W 071°02'0 0.0
2018-Jun-12 19:00N 42°21' W 071°02'0 0.0
2018-Jun-12 18:30N 42°21' W 071°02'0 0.2
2018-Jun-12 18:00N 42°21' W 071°02'2 4.6
2018-Jun-12 17:30N 42°20' W 070°59'3 7.0
2018-Jun-12 17:00N 42°22' W 070°55'4 8.0
2018-Jun-12 16:30N 42°23' W 070°50'4 8.5
2018-Jun-12 16:00N 42°23' W 070°44'4 8.9
2018-Jun-12 15:30N 42°22' W 070°38'5 9.0
2018-Jun-12 15:00N 42°22' W 070°32'5 9.1
2018-Jun-12 14:30N 42°21' W 070°26'4 8.9
2018-Jun-12 14:00N 42°21' W 070°20'5 8.9
2018-Jun-12 13:30N 42°20' W 070°14'5 9.0
2018-Jun-12 12:59N 42°20' W 070°08'4 9.0
2018-Jun-12 12:30N 42°19' W 070°02'28 8.4
2018-Jun-12 09:10N 41°55' W 069°44'3 8.5
2018-Jun-12 08:52N 41°53' W 069°42'3 8.5
2018-Jun-12 08:30N 41°50' W 069°40'4 8.4
2018-Jun-12 07:59N 41°46' W 069°37'5 8.2
2018-Jun-12 07:20N 41°41' W 069°34'4 8.5
2018-Jun-12 06:55N 41°38' W 069°32'3 8.3
2018-Jun-12 06:30N 41°35' W 069°30'4 8.0
2018-Jun-12 06:00N 41°31' W 069°28'4 7.5
2018-Jun-12 05:29N 41°28' W 069°25'4 7.1
2018-Jun-12 04:58N 41°25' W 069°23'301 7.0
2018-Jun-10 09:42N 39°09' W 075°15'2 8.2
2018-Jun-10 09:29N 39°11' W 075°16'4 7.9
2018-Jun-10 09:00N 39°14' W 075°18'4 7.2
2018-Jun-10 08:30N 39°17' W 075°21'2 4.0
2018-Jun-10 07:59N 39°18' W 075°23'4 9.4
2018-Jun-10 07:30N 39°22' W 075°27'611.0
2018-Jun-10 06:58N 39°26' W 075°32'1 3.0
2018-Jun-10 06:30N 39°27' W 075°33'510.6
2018-Jun-10 06:00N 39°32' W 075°33'510.4
2018-Jun-10 05:29N 39°37' W 075°35'610.6
2018-Jun-10 04:58N 39°42' W 075°31'1014.7
2018-Jun-10 04:18N 39°50' W 075°23'3 8.8
2018-Jun-10 03:56N 39°51' W 075°19'2 4.9
2018-Jun-10 03:29N 39°51' W 075°16'0 0.0
2018-Jun-10 03:00N 39°51' W 075°16'0 0.0
2018-Jun-10 02:30N 39°51' W 075°16'0 0.1
2018-Jun-10 01:53N 39°51' W 075°16'1 2.9
2018-Jun-10 01:28N 39°51' W 075°14'3 6.4
2018-Jun-10 00:58N 39°53' W 075°11'0 0.0
2018-Jun-10 00:30N 39°53' W 075°11'0 0.0
2018-Jun-10 00:00N 39°53' W 075°11'0 0.0
2018-Jun-09 23:28N 39°53' W 075°11'0 0.0
2018-Jun-09 22:58N 39°53' W 075°11'0 0.0
2018-Jun-09 22:26N 39°53' W 075°11'0 0.0
2018-Jun-09 22:00N 39°53' W 075°11'0 0.0
2018-Jun-09 21:25N 39°53' W 075°11'0 0.0
2018-Jun-09 21:00N 39°53' W 075°11'0 0.0
2018-Jun-09 20:30N 39°53' W 075°11'0 0.0
2018-Jun-09 19:58N 39°53' W 075°11'0 0.0
2018-Jun-09 19:27N 39°53' W 075°11'0 0.0
2018-Jun-09 19:00N 39°53' W 075°11'0 0.0
2018-Jun-09 18:30N 39°53' W 075°11'0 0.0
2018-Jun-09 17:58N 39°53' W 075°11'0 0.0
2018-Jun-09 17:26N 39°53' W 075°11'0 0.0
2018-Jun-09 17:00N 39°53' W 075°11'0 0.0
2018-Jun-09 16:29N 39°53' W 075°11'0 0.0
2018-Jun-09 16:01N 39°53' W 075°11'0 0.0
2018-Jun-09 15:00N 39°53' W 075°11'0 0.0
2018-Jun-09 14:28N 39°53' W 075°11'0 0.0
2018-Jun-09 13:58N 39°53' W 075°11'0 0.0
2018-Jun-09 13:30N 39°53' W 075°11'0 0.0
2018-Jun-09 13:00N 39°53' W 075°11'0 0.0
2018-Jun-09 12:30N 39°53' W 075°11'0 0.0
2018-Jun-09 11:59N 39°53' W 075°11'0 0.0
2018-Jun-09 11:29N 39°53' W 075°11'0 0.0
2018-Jun-09 11:00N 39°53' W 075°11'0 0.0
2018-Jun-09 10:29N 39°53' W 075°11'0 0.0
2018-Jun-09 10:00N 39°53' W 075°11'0 0.0
2018-Jun-09 09:27N 39°53' W 075°11'0 0.0
2018-Jun-09 08:59N 39°53' W 075°11'0 0.0
2018-Jun-09 08:30N 39°53' W 075°11'0 0.0
2018-Jun-09 07:59N 39°53' W 075°11'0 0.0
2018-Jun-09 07:29N 39°53' W 075°11'0 0.0
2018-Jun-09 07:00N 39°53' W 075°11'0 0.0
2018-Jun-09 06:30N 39°53' W 075°11'0 0.0
2018-Jun-09 06:00N 39°53' W 075°11'0 0.0
2018-Jun-09 05:30N 39°53' W 075°11'0 0.0
2018-Jun-09 05:00N 39°53' W 075°11'0 0.0
2018-Jun-09 04:30N 39°53' W 075°11'0 0.0
2018-Jun-09 04:00N 39°53' W 075°11'0 0.0
2018-Jun-09 03:30N 39°53' W 075°11'0 0.0
2018-Jun-09 03:00N 39°53' W 075°11'0 0.0
2018-Jun-09 02:30N 39°53' W 075°11'0 0.0
2018-Jun-09 02:00N 39°53' W 075°11'0 0.0
2018-Jun-09 01:30N 39°53' W 075°11'  

Dump ship's entire track history